sensor_id;sensor_type;location;lat;lon;timestamp;P1;durP1;ratioP1;P2;durP2;ratioP2
15528;SDS011;7866;52.280;9.500;2023-04-06T00:03:14;3.33;;;2.30;;
15528;SDS011;7866;52.280;9.500;2023-04-06T00:08:16;2.60;;;2.33;;
15528;SDS011;7866;52.280;9.500;2023-04-06T00:13:17;4.87;;;2.50;;
15528;SDS011;7866;52.280;9.500;2023-04-06T00:18:21;2.77;;;2.40;;
15528;SDS011;7866;52.280;9.500;2023-04-06T00:23:23;3.93;;;2.43;;
15528;SDS011;7866;52.280;9.500;2023-04-06T00:28:25;3.03;;;2.63;;
15528;SDS011;7866;52.280;9.500;2023-04-06T00:33:28;3.57;;;2.50;;
15528;SDS011;7866;52.280;9.500;2023-04-06T00:38:30;3.27;;;2.97;;
15528;SDS011;7866;52.280;9.500;2023-04-06T00:48:36;2.93;;;2.63;;
15528;SDS011;7866;52.280;9.500;2023-04-06T00:53:37;3.30;;;2.70;;
15528;SDS011;7866;52.280;9.500;2023-04-06T00:58:39;2.60;;;2.33;;
15528;SDS011;7866;52.280;9.500;2023-04-06T01:03:43;3.57;;;2.80;;
15528;SDS011;7866;52.280;9.500;2023-04-06T01:08:48;2.90;;;2.70;;
15528;SDS011;7866;52.280;9.500;2023-04-06T01:13:50;2.93;;;2.70;;
15528;SDS011;7866;52.280;9.500;2023-04-06T01:18:53;2.83;;;2.37;;
15528;SDS011;7866;52.280;9.500;2023-04-06T01:23:57;4.20;;;3.10;;
15528;SDS011;7866;52.280;9.500;2023-04-06T01:28:58;2.77;;;2.57;;
15528;SDS011;7866;52.280;9.500;2023-04-06T01:34:00;4.17;;;3.07;;
15528;SDS011;7866;52.280;9.500;2023-04-06T01:39:03;2.80;;;2.60;;
15528;SDS011;7866;52.280;9.500;2023-04-06T01:44:05;4.90;;;2.90;;
15528;SDS011;7866;52.280;9.500;2023-04-06T01:49:07;3.90;;;3.07;;
15528;SDS011;7866;52.280;9.500;2023-04-06T01:54:10;3.10;;;2.80;;
15528;SDS011;7866;52.280;9.500;2023-04-06T01:59:12;4.83;;;3.27;;
15528;SDS011;7866;52.280;9.500;2023-04-06T02:04:13;3.63;;;3.33;;
15528;SDS011;7866;52.280;9.500;2023-04-06T02:09:17;3.10;;;2.90;;
15528;SDS011;7866;52.280;9.500;2023-04-06T02:14:18;5.03;;;3.13;;
15528;SDS011;7866;52.280;9.500;2023-04-06T02:19:20;3.50;;;3.20;;
15528;SDS011;7866;52.280;9.500;2023-04-06T02:24:23;3.27;;;2.97;;
15528;SDS011;7866;52.280;9.500;2023-04-06T02:29:25;3.10;;;2.77;;
15528;SDS011;7866;52.280;9.500;2023-04-06T02:34:27;3.70;;;3.40;;
15528;SDS011;7866;52.280;9.500;2023-04-06T02:39:31;3.53;;;3.23;;
15528;SDS011;7866;52.280;9.500;2023-04-06T02:44:32;3.30;;;3.00;;
15528;SDS011;7866;52.280;9.500;2023-04-06T02:49:34;3.57;;;3.27;;
15528;SDS011;7866;52.280;9.500;2023-04-06T02:54:37;3.60;;;3.30;;
15528;SDS011;7866;52.280;9.500;2023-04-06T02:59:39;3.47;;;3.17;;
15528;SDS011;7866;52.280;9.500;2023-04-06T03:04:41;4.60;;;3.00;;
15528;SDS011;7866;52.280;9.500;2023-04-06T03:09:44;4.70;;;3.10;;
15528;SDS011;7866;52.280;9.500;2023-04-06T03:14:46;4.33;;;3.43;;
15528;SDS011;7866;52.280;9.500;2023-04-06T03:19:47;5.50;;;3.90;;
15528;SDS011;7866;52.280;9.500;2023-04-06T03:24:51;4.57;;;4.17;;
15528;SDS011;7866;52.280;9.500;2023-04-06T03:29:52;4.40;;;4.00;;
15528;SDS011;7866;52.280;9.500;2023-04-06T03:34:54;4.43;;;3.93;;
15528;SDS011;7866;52.280;9.500;2023-04-06T03:39:57;4.70;;;3.40;;
15528;SDS011;7866;52.280;9.500;2023-04-06T03:44:59;4.03;;;3.73;;
15528;SDS011;7866;52.280;9.500;2023-04-06T03:50:00;4.60;;;4.20;;
15528;SDS011;7866;52.280;9.500;2023-04-06T03:55:05;5.10;;;4.03;;
15528;SDS011;7866;52.280;9.500;2023-04-06T04:00:08;4.50;;;4.10;;
15528;SDS011;7866;52.280;9.500;2023-04-06T04:05:11;5.20;;;4.70;;
15528;SDS011;7866;52.280;9.500;2023-04-06T04:10:14;4.57;;;4.17;;
15528;SDS011;7866;52.280;9.500;2023-04-06T04:15:16;4.90;;;4.43;;
15528;SDS011;7866;52.280;9.500;2023-04-06T04:20:17;4.57;;;4.17;;
15528;SDS011;7866;52.280;9.500;2023-04-06T04:25:20;4.50;;;4.10;;
15528;SDS011;7866;52.280;9.500;2023-04-06T04:30:22;4.40;;;4.00;;
15528;SDS011;7866;52.280;9.500;2023-04-06T04:35:24;4.40;;;4.00;;
15528;SDS011;7866;52.280;9.500;2023-04-06T04:40:27;5.93;;;4.63;;
15528;SDS011;7866;52.280;9.500;2023-04-06T04:45:28;5.50;;;4.00;;
15528;SDS011;7866;52.280;9.500;2023-04-06T04:50:30;5.33;;;3.93;;
15528;SDS011;7866;52.280;9.500;2023-04-06T04:55:33;6.83;;;4.27;;
15528;SDS011;7866;52.280;9.500;2023-04-06T05:00:35;4.60;;;4.20;;
15528;SDS011;7866;52.280;9.500;2023-04-06T05:05:37;4.17;;;3.80;;
15528;SDS011;7866;52.280;9.500;2023-04-06T05:10:40;4.37;;;3.97;;
15528;SDS011;7866;52.280;9.500;2023-04-06T05:15:41;4.30;;;4.00;;
15528;SDS011;7866;52.280;9.500;2023-04-06T05:20:43;9.63;;;4.30;;
15528;SDS011;7866;52.280;9.500;2023-04-06T05:25:46;4.63;;;4.30;;
15528;SDS011;7866;52.280;9.500;2023-04-06T05:30:48;4.50;;;4.10;;
15528;SDS011;7866;52.280;9.500;2023-04-06T05:35:50;5.07;;;4.57;;
15528;SDS011;7866;52.280;9.500;2023-04-06T05:40:53;4.13;;;3.80;;
15528;SDS011;7866;52.280;9.500;2023-04-06T05:45:55;4.27;;;3.70;;
15528;SDS011;7866;52.280;9.500;2023-04-06T05:50:56;6.33;;;4.40;;
15528;SDS011;7866;52.280;9.500;2023-04-06T05:56:01;4.60;;;4.13;;
15528;SDS011;7866;52.280;9.500;2023-04-06T06:01:03;4.73;;;4.30;;
15528;SDS011;7866;52.280;9.500;2023-04-06T06:06:05;4.50;;;4.10;;
15528;SDS011;7866;52.280;9.500;2023-04-06T06:11:08;5.63;;;4.13;;
15528;SDS011;7866;52.280;9.500;2023-04-06T06:16:10;8.00;;;3.90;;
15528;SDS011;7866;52.280;9.500;2023-04-06T06:21:12;4.53;;;4.13;;
15528;SDS011;7866;52.280;9.500;2023-04-06T06:26:15;5.80;;;3.93;;
15528;SDS011;7866;52.280;9.500;2023-04-06T06:31:17;4.50;;;4.07;;
15528;SDS011;7866;52.280;9.500;2023-04-06T06:36:20;4.50;;;4.10;;
15528;SDS011;7866;52.280;9.500;2023-04-06T06:41:23;6.27;;;5.63;;
15528;SDS011;7866;52.280;9.500;2023-04-06T06:46:26;5.37;;;4.53;;
15528;SDS011;7866;52.280;9.500;2023-04-06T06:51:27;5.13;;;4.40;;
15528;SDS011;7866;52.280;9.500;2023-04-06T06:56:30;4.47;;;4.03;;
15528;SDS011;7866;52.280;9.500;2023-04-06T07:01:32;4.90;;;4.47;;
15528;SDS011;7866;52.280;9.500;2023-04-06T07:06:35;5.00;;;4.50;;
15528;SDS011;7866;52.280;9.500;2023-04-06T07:11:38;5.60;;;5.10;;
15528;SDS011;7866;52.280;9.500;2023-04-06T07:16:40;4.93;;;4.30;;
15528;SDS011;7866;52.280;9.500;2023-04-06T07:21:41;6.23;;;4.67;;
15528;SDS011;7866;52.280;9.500;2023-04-06T07:26:44;5.83;;;4.60;;
15528;SDS011;7866;52.280;9.500;2023-04-06T07:31:46;5.50;;;4.77;;
15528;SDS011;7866;52.280;9.500;2023-04-06T07:36:49;7.53;;;4.33;;
15528;SDS011;7866;52.280;9.500;2023-04-06T07:41:54;5.27;;;4.27;;
15528;SDS011;7866;52.280;9.500;2023-04-06T07:46:56;5.30;;;4.77;;
15528;SDS011;7866;52.280;9.500;2023-04-06T07:51:57;7.20;;;4.40;;
15528;SDS011;7866;52.280;9.500;2023-04-06T07:57:00;5.77;;;5.07;;
15528;SDS011;7866;52.280;9.500;2023-04-06T08:02:02;7.10;;;4.90;;
15528;SDS011;7866;52.280;9.500;2023-04-06T08:07:04;6.30;;;4.63;;
15528;SDS011;7866;52.280;9.500;2023-04-06T08:12:07;4.70;;;4.30;;
15528;SDS011;7866;52.280;9.500;2023-04-06T08:17:09;5.90;;;4.83;;
15528;SDS011;7866;52.280;9.500;2023-04-06T08:22:11;5.80;;;4.47;;
15528;SDS011;7866;52.280;9.500;2023-04-06T08:27:14;6.83;;;4.90;;
15528;SDS011;7866;52.280;9.500;2023-04-06T08:32:16;5.00;;;4.50;;
15528;SDS011;7866;52.280;9.500;2023-04-06T08:37:17;6.00;;;4.67;;
15528;SDS011;7866;52.280;9.500;2023-04-06T08:42:21;6.03;;;4.90;;
15528;SDS011;7866;52.280;9.500;2023-04-06T08:47:23;4.83;;;4.43;;
15528;SDS011;7866;52.280;9.500;2023-04-06T08:52:25;5.17;;;4.70;;
15528;SDS011;7866;52.280;9.500;2023-04-06T08:57:29;5.40;;;4.57;;
15528;SDS011;7866;52.280;9.500;2023-04-06T09:02:32;6.63;;;5.23;;
15528;SDS011;7866;52.280;9.500;2023-04-06T09:07:35;6.10;;;5.50;;
15528;SDS011;7866;52.280;9.500;2023-04-06T09:12:38;5.80;;;5.20;;
15528;SDS011;7866;52.280;9.500;2023-04-06T09:17:40;5.23;;;4.73;;
15528;SDS011;7866;52.280;9.500;2023-04-06T09:22:46;7.77;;;4.93;;
15528;SDS011;7866;52.280;9.500;2023-04-06T09:27:57;5.13;;;4.60;;
15528;SDS011;7866;52.280;9.500;2023-04-06T09:33:00;6.07;;;5.07;;
15528;SDS011;7866;52.280;9.500;2023-04-06T09:38:10;6.53;;;4.77;;
15528;SDS011;7866;52.280;9.500;2023-04-06T09:43:13;6.43;;;5.37;;
15528;SDS011;7866;52.280;9.500;2023-04-06T09:48:24;5.40;;;4.70;;
15528;SDS011;7866;52.280;9.500;2023-04-06T09:53:27;6.17;;;5.10;;
15528;SDS011;7866;52.280;9.500;2023-04-06T09:58:34;6.00;;;5.40;;
15528;SDS011;7866;52.280;9.500;2023-04-06T10:03:41;5.87;;;5.03;;
15528;SDS011;7866;52.280;9.500;2023-04-06T10:08:49;5.90;;;5.30;;
15528;SDS011;7866;52.280;9.500;2023-04-06T10:13:56;6.07;;;5.47;;
15528;SDS011;7866;52.280;9.500;2023-04-06T10:19:08;6.97;;;6.13;;
15528;SDS011;7866;52.280;9.500;2023-04-06T10:24:13;6.03;;;5.43;;
15528;SDS011;7866;52.280;9.500;2023-04-06T10:29:18;9.23;;;5.70;;
15528;SDS011;7866;52.280;9.500;2023-04-06T10:34:22;7.20;;;5.83;;
15528;SDS011;7866;52.280;9.500;2023-04-06T10:39:24;7.33;;;6.33;;
15528;SDS011;7866;52.280;9.500;2023-04-06T10:44:28;8.13;;;6.83;;
15528;SDS011;7866;52.280;9.500;2023-04-06T10:49:30;8.13;;;6.50;;
15528;SDS011;7866;52.280;9.500;2023-04-06T10:54:32;9.57;;;6.47;;
15528;SDS011;7866;52.280;9.500;2023-04-06T10:59:35;7.60;;;6.90;;
15528;SDS011;7866;52.280;9.500;2023-04-06T11:04:37;10.23;;;6.77;;
15528;SDS011;7866;52.280;9.500;2023-04-06T11:09:38;8.30;;;7.10;;
15528;SDS011;7866;52.280;9.500;2023-04-06T11:14:51;7.47;;;6.37;;
15528;SDS011;7866;52.280;9.500;2023-04-06T11:19:54;12.27;;;7.13;;
15528;SDS011;7866;52.280;9.500;2023-04-06T11:25:04;7.33;;;6.63;;
15528;SDS011;7866;52.280;9.500;2023-04-06T11:30:09;7.63;;;6.90;;
15528;SDS011;7866;52.280;9.500;2023-04-06T11:35:11;10.33;;;6.90;;
15528;SDS011;7866;52.280;9.500;2023-04-06T11:40:20;8.23;;;7.43;;
15528;SDS011;7866;52.280;9.500;2023-04-06T11:45:25;8.57;;;6.73;;
15528;SDS011;7866;52.280;9.500;2023-04-06T11:50:31;7.93;;;7.20;;
15528;SDS011;7866;52.280;9.500;2023-04-06T11:55:37;9.93;;;6.87;;
15528;SDS011;7866;52.280;9.500;2023-04-06T12:00:41;8.20;;;6.67;;
15528;SDS011;7866;52.280;9.500;2023-04-06T12:05:45;8.60;;;6.80;;
15528;SDS011;7866;52.280;9.500;2023-04-06T12:10:47;9.03;;;7.97;;
15528;SDS011;7866;52.280;9.500;2023-04-06T12:15:50;8.87;;;7.97;;
15528;SDS011;7866;52.280;9.500;2023-04-06T12:20:52;7.83;;;7.03;;
15528;SDS011;7866;52.280;9.500;2023-04-06T12:25:53;8.97;;;7.57;;
15528;SDS011;7866;52.280;9.500;2023-04-06T12:30:57;7.53;;;6.23;;
15528;SDS011;7866;52.280;9.500;2023-04-06T12:35:58;7.30;;;6.60;;
15528;SDS011;7866;52.280;9.500;2023-04-06T12:41:00;9.60;;;7.20;;
15528;SDS011;7866;52.280;9.500;2023-04-06T12:46:03;7.90;;;6.75;;
15528;SDS011;7866;52.280;9.500;2023-04-06T12:51:05;6.72;;;6.13;;
15528;SDS011;7866;52.280;9.500;2023-04-06T12:56:11;7.57;;;6.88;;
15528;SDS011;7866;52.280;9.500;2023-04-06T13:01:15;6.77;;;6.17;;
15528;SDS011;7866;52.280;9.500;2023-04-06T13:06:17;7.55;;;6.85;;
15528;SDS011;7866;52.280;9.500;2023-04-06T13:11:19;6.60;;;6.00;;
15528;SDS011;7866;52.280;9.500;2023-04-06T13:16:25;5.85;;;5.35;;
15528;SDS011;7866;52.280;9.500;2023-04-06T13:21:27;8.02;;;7.20;;
15528;SDS011;7866;52.280;9.500;2023-04-06T13:26:28;8.52;;;6.72;;
15528;SDS011;7866;52.280;9.500;2023-04-06T13:31:32;6.57;;;5.88;;
15528;SDS011;7866;52.280;9.500;2023-04-06T13:36:33;7.80;;;6.97;;
15528;SDS011;7866;52.280;9.500;2023-04-06T13:41:35;8.82;;;7.20;;
15528;SDS011;7866;52.280;9.500;2023-04-06T13:46:38;7.70;;;6.95;;
15528;SDS011;7866;52.280;9.500;2023-04-06T13:51:40;7.22;;;6.45;;
15528;SDS011;7866;52.280;9.500;2023-04-06T13:56:42;7.97;;;7.18;;
15528;SDS011;7866;52.280;9.500;2023-04-06T14:01:45;8.85;;;7.40;;
15528;SDS011;7866;52.280;9.500;2023-04-06T14:06:47;8.15;;;7.13;;
15528;SDS011;7866;52.280;9.500;2023-04-06T14:11:48;8.77;;;7.22;;
15528;SDS011;7866;52.280;9.500;2023-04-06T14:16:51;7.75;;;6.95;;
15528;SDS011;7866;52.280;9.500;2023-04-06T14:21:54;7.60;;;6.80;;
15528;SDS011;7866;52.280;9.500;2023-04-06T14:26:56;7.18;;;6.47;;
15528;SDS011;7866;52.280;9.500;2023-04-06T14:31:59;8.75;;;7.60;;
15528;SDS011;7866;52.280;9.500;2023-04-06T14:37:01;7.55;;;6.80;;
15528;SDS011;7866;52.280;9.500;2023-04-06T14:42:02;7.63;;;6.43;;
15528;SDS011;7866;52.280;9.500;2023-04-06T14:47:05;8.70;;;7.65;;
15528;SDS011;7866;52.280;9.500;2023-04-06T14:52:08;7.30;;;6.45;;
15528;SDS011;7866;52.280;9.500;2023-04-06T14:57:10;7.28;;;6.57;;
15528;SDS011;7866;52.280;9.500;2023-04-06T15:02:13;8.27;;;6.97;;
15528;SDS011;7866;52.280;9.500;2023-04-06T15:07:15;8.23;;;6.72;;
15528;SDS011;7866;52.280;9.500;2023-04-06T15:12:17;7.68;;;6.90;;
15528;SDS011;7866;52.280;9.500;2023-04-06T15:17:20;8.35;;;7.03;;
15528;SDS011;7866;52.280;9.500;2023-04-06T15:22:22;8.55;;;7.65;;
15528;SDS011;7866;52.280;9.500;2023-04-06T15:27:23;7.65;;;6.57;;
15528;SDS011;7866;52.280;9.500;2023-04-06T15:32:27;8.85;;;7.90;;
15528;SDS011;7866;52.280;9.500;2023-04-06T15:37:28;8.93;;;8.02;;
15528;SDS011;7866;52.280;9.500;2023-04-06T15:42:30;9.40;;;8.02;;
15528;SDS011;7866;52.280;9.500;2023-04-06T15:47:33;9.50;;;8.50;;
15528;SDS011;7866;52.280;9.500;2023-04-06T15:52:34;8.68;;;7.78;;
15528;SDS011;7866;52.280;9.500;2023-04-06T15:57:36;9.13;;;7.85;;
15528;SDS011;7866;52.280;9.500;2023-04-06T16:02:39;10.68;;;8.63;;
15528;SDS011;7866;52.280;9.500;2023-04-06T16:07:41;9.52;;;8.52;;
15528;SDS011;7866;52.280;9.500;2023-04-06T16:12:43;9.82;;;8.85;;
15528;SDS011;7866;52.280;9.500;2023-04-06T16:17:46;8.63;;;7.82;;
15528;SDS011;7866;52.280;9.500;2023-04-06T16:22:48;9.00;;;8.10;;
15528;SDS011;7866;52.280;9.500;2023-04-06T16:27:50;8.60;;;7.77;;
15528;SDS011;7866;52.280;9.500;2023-04-06T16:32:53;9.57;;;7.37;;
15528;SDS011;7866;52.280;9.500;2023-04-06T16:37:55;10.23;;;7.90;;
15528;SDS011;7866;52.280;9.500;2023-04-06T16:42:56;7.07;;;6.40;;
15528;SDS011;7866;52.280;9.500;2023-04-06T16:47:59;8.00;;;6.37;;
15528;SDS011;7866;52.280;9.500;2023-04-06T16:53:01;7.70;;;6.03;;
15528;SDS011;7866;52.280;9.500;2023-04-06T16:58:03;8.13;;;6.43;;
15528;SDS011;7866;52.280;9.500;2023-04-06T17:03:06;7.00;;;5.60;;
15528;SDS011;7866;52.280;9.500;2023-04-06T17:08:07;6.80;;;5.50;;
15528;SDS011;7866;52.280;9.500;2023-04-06T17:13:09;6.00;;;5.37;;
15528;SDS011;7866;52.280;9.500;2023-04-06T17:18:12;5.63;;;5.03;;
15528;SDS011;7866;52.280;9.500;2023-04-06T17:23:13;5.53;;;4.83;;
15528;SDS011;7866;52.280;9.500;2023-04-06T17:28:15;6.80;;;5.40;;
15528;SDS011;7866;52.280;9.500;2023-04-06T17:33:18;5.80;;;4.80;;
15528;SDS011;7866;52.280;9.500;2023-04-06T17:38:21;4.90;;;4.40;;
15528;SDS011;7866;52.280;9.500;2023-04-06T17:43:23;6.00;;;4.57;;
15528;SDS011;7866;52.280;9.500;2023-04-06T17:48:26;6.47;;;4.73;;
15528;SDS011;7866;52.280;9.500;2023-04-06T17:53:28;5.83;;;5.00;;
15528;SDS011;7866;52.280;9.500;2023-04-06T17:58:32;5.63;;;5.07;;
15528;SDS011;7866;52.280;9.500;2023-04-06T18:03:35;7.37;;;5.10;;
15528;SDS011;7866;52.280;9.500;2023-04-06T18:08:37;5.13;;;4.63;;
15528;SDS011;7866;52.280;9.500;2023-04-06T18:13:39;5.23;;;4.73;;
15528;SDS011;7866;52.280;9.500;2023-04-06T18:18:42;5.53;;;4.70;;
15528;SDS011;7866;52.280;9.500;2023-04-06T18:23:44;7.37;;;5.07;;
15528;SDS011;7866;52.280;9.500;2023-04-06T18:28:46;8.00;;;5.20;;
15528;SDS011;7866;52.280;9.500;2023-04-06T18:33:49;8.80;;;5.20;;
15528;SDS011;7866;52.280;9.500;2023-04-06T18:38:50;6.83;;;5.03;;
15528;SDS011;7866;52.280;9.500;2023-04-06T18:43:52;6.17;;;5.17;;
15528;SDS011;7866;52.280;9.500;2023-04-06T18:48:55;5.63;;;5.00;;
15528;SDS011;7866;52.280;9.500;2023-04-06T18:53:57;9.17;;;5.37;;
15528;SDS011;7866;52.280;9.500;2023-04-06T18:59:00;5.30;;;4.80;;
15528;SDS011;7866;52.280;9.500;2023-04-06T19:04:03;5.10;;;4.63;;
15528;SDS011;7866;52.280;9.500;2023-04-06T19:09:05;5.30;;;4.80;;
15528;SDS011;7866;52.280;9.500;2023-04-06T19:14:06;5.27;;;4.77;;
15528;SDS011;7866;52.280;9.500;2023-04-06T19:19:09;5.80;;;5.17;;
15528;SDS011;7866;52.280;9.500;2023-04-06T19:24:11;5.80;;;5.03;;
15528;SDS011;7866;52.280;9.500;2023-04-06T19:29:13;7.03;;;5.50;;
15528;SDS011;7866;52.280;9.500;2023-04-06T19:34:16;5.80;;;4.80;;
15528;SDS011;7866;52.280;9.500;2023-04-06T19:39:18;6.30;;;5.30;;
15528;SDS011;7866;52.280;9.500;2023-04-06T19:44:19;6.10;;;4.93;;
15528;SDS011;7866;52.280;9.500;2023-04-06T19:49:22;5.97;;;4.53;;
15528;SDS011;7866;52.280;9.500;2023-04-06T19:54:27;6.73;;;5.23;;
15528;SDS011;7866;52.280;9.500;2023-04-06T19:59:28;6.20;;;5.20;;
15528;SDS011;7866;52.280;9.500;2023-04-06T20:04:31;6.40;;;4.93;;
15528;SDS011;7866;52.280;9.500;2023-04-06T20:09:33;6.50;;;5.27;;
15528;SDS011;7866;52.280;9.500;2023-04-06T20:14:35;5.87;;;4.90;;
15528;SDS011;7866;52.280;9.500;2023-04-06T20:19:38;6.40;;;5.40;;
15528;SDS011;7866;52.280;9.500;2023-04-06T20:24:40;7.23;;;6.30;;
15528;SDS011;7866;52.280;9.500;2023-04-06T20:29:42;6.97;;;5.57;;
15528;SDS011;7866;52.280;9.500;2023-04-06T20:34:45;6.47;;;5.50;;
15528;SDS011;7866;52.280;9.500;2023-04-06T20:39:47;6.93;;;5.90;;
15528;SDS011;7866;52.280;9.500;2023-04-06T20:44:48;7.13;;;6.43;;
15528;SDS011;7866;52.280;9.500;2023-04-06T20:49:52;8.73;;;6.70;;
15528;SDS011;7866;52.280;9.500;2023-04-06T20:54:53;6.80;;;5.87;;
15528;SDS011;7866;52.280;9.500;2023-04-06T20:59:56;6.97;;;6.03;;
15528;SDS011;7866;52.280;9.500;2023-04-06T21:04:59;8.90;;;6.77;;
15528;SDS011;7866;52.280;9.500;2023-04-06T21:10:01;7.73;;;6.67;;
15528;SDS011;7866;52.280;9.500;2023-04-06T21:15:03;7.53;;;6.20;;
15528;SDS011;7866;52.280;9.500;2023-04-06T21:20:07;7.90;;;6.33;;
15528;SDS011;7866;52.280;9.500;2023-04-06T21:25:10;6.97;;;6.27;;
15528;SDS011;7866;52.280;9.500;2023-04-06T21:30:12;9.10;;;7.13;;
15528;SDS011;7866;52.280;9.500;2023-04-06T21:35:15;7.80;;;6.80;;
15528;SDS011;7866;52.280;9.500;2023-04-06T21:40:17;9.43;;;7.07;;
15528;SDS011;7866;52.280;9.500;2023-04-06T21:45:19;7.80;;;6.33;;
15528;SDS011;7866;52.280;9.500;2023-04-06T21:50:22;10.17;;;7.17;;
15528;SDS011;7866;52.280;9.500;2023-04-06T21:55:24;7.93;;;7.13;;
15528;SDS011;7866;52.280;9.500;2023-04-06T22:00:26;9.40;;;7.13;;
15528;SDS011;7866;52.280;9.500;2023-04-06T22:05:29;9.67;;;7.50;;
15528;SDS011;7866;52.280;9.500;2023-04-06T22:10:31;8.47;;;6.87;;
15528;SDS011;7866;52.280;9.500;2023-04-06T22:15:33;8.07;;;6.60;;
15528;SDS011;7866;52.280;9.500;2023-04-06T22:20:36;9.20;;;7.80;;
15528;SDS011;7866;52.280;9.500;2023-04-06T22:25:37;8.97;;;7.53;;
15528;SDS011;7866;52.280;9.500;2023-04-06T22:30:39;8.17;;;6.90;;
15528;SDS011;7866;52.280;9.500;2023-04-06T22:35:42;11.43;;;8.87;;
15528;SDS011;7866;52.280;9.500;2023-04-06T22:40:44;11.30;;;7.80;;
15528;SDS011;7866;52.280;9.500;2023-04-06T22:45:45;7.80;;;6.90;;
15528;SDS011;7866;52.280;9.500;2023-04-06T22:50:48;8.10;;;6.63;;
15528;SDS011;7866;52.280;9.500;2023-04-06T22:55:50;7.90;;;6.37;;
15528;SDS011;7866;52.280;9.500;2023-04-06T23:00:52;9.00;;;7.27;;
15528;SDS011;7866;52.280;9.500;2023-04-06T23:05:55;7.97;;;7.10;;
15528;SDS011;7866;52.280;9.500;2023-04-06T23:10:56;8.90;;;7.57;;
15528;SDS011;7866;52.280;9.500;2023-04-06T23:15:58;10.27;;;7.47;;
15528;SDS011;7866;52.280;9.500;2023-04-06T23:21:01;8.83;;;7.20;;
15528;SDS011;7866;52.280;9.500;2023-04-06T23:26:06;9.47;;;7.20;;
15528;SDS011;7866;52.280;9.500;2023-04-06T23:31:07;7.53;;;6.03;;
15528;SDS011;7866;52.280;9.500;2023-04-06T23:36:10;8.17;;;6.90;;
15528;SDS011;7866;52.280;9.500;2023-04-06T23:41:12;9.00;;;7.23;;
15528;SDS011;7866;52.280;9.500;2023-04-06T23:46:15;9.30;;;6.90;;
15528;SDS011;7866;52.280;9.500;2023-04-06T23:51:18;8.33;;;6.73;;
15528;SDS011;7866;52.280;9.500;2023-04-06T23:56:20;8.13;;;6.17;;
